Time,TemperatureF,DewpointF,PressureIn,WindDirection,WindDirectionDegrees,WindSpeedMPH,WindSpeedGustMPH,Humidity,HourlyPrecipIn,Conditions,Clouds,dailyrainin,SolarRadiationWatts/m^2,SoftwareType,DateUTC
2013-01-02 00:00:00,20.1,16.3,30.06,SSW,208,6.0,6.0,85,0.00,,,0.00,0,Wunderground v.1.15,2013-01-02 06:00:00,
2013-01-02 00:05:00,20.1,16.3,30.06,SW,220,5.0,6.0,85,0.00,,,0.00,0,Wunderground v.1.15,2013-01-02 06:05:00,
2013-01-02 00:15:00,20.1,16.3,30.06,South,187,4.0,7.0,85,0.00,,,0.00,0,Wunderground v.1.15,2013-01-02 06:15:00,
2013-01-02 00:20:00,20.1,16.3,30.06,SW,225,6.0,9.0,85,0.00,,,0.00,0,Wunderground v.1.15,2013-01-02 06:20:00,
2013-01-02 00:30:00,20.2,16.4,30.06,SSE,164,6.0,6.0,85,0.00,,,0.00,0,Wunderground v.1.15,2013-01-02 06:30:00,
2013-01-02 00:35:00,20.1,16.3,30.06,South,179,6.0,8.0,85,0.00,,,0.00,0,Wunderground v.1.15,2013-01-02 06:35:00,
2013-01-02 00:40:00,20.1,16.3,30.06,SSW,213,6.0,6.0,85,0.00,,,0.00,0,Wunderground v.1.15,2013-01-02 06:40:00,
2013-01-02 00:45:00,20.1,16.3,30.04,SSW,207,5.0,6.0,85,0.00,,,0.00,0,Wunderground v.1.15,2013-01-02 06:45:00,
2013-01-02 00:50:00,20.1,16.3,30.04,SSW,205,6.0,7.0,85,0.00,,,0.00,0,Wunderground v.1.15,2013-01-02 06:50:00,
2013-01-02 00:55:00,20.1,16.3,30.04,South,191,6.0,7.0,85,0.00,,,0.00,0,Wunderground v.1.15,2013-01-02 06:55:00,
2013-01-02 01:05:00,20.1,16.3,30.04,SW,227,5.0,9.0,85,0.00,,,0.00,0,Wunderground v.1.15,2013-01-02 07:05:00,
2013-01-02 01:15:00,20.1,16.3,30.04,SW,223,5.0,6.0,85,0.00,,,0.00,0,Wunderground v.1.15,2013-01-02 07:15:00,
2013-01-02 01:20:00,20.1,16.3,30.04,SW,222,4.0,4.0,85,0.00,,,0.00,0,Wunderground v.1.15,2013-01-02 07:20:00,
2013-01-02 01:30:00,20.1,16.3,30.03,SSW,200,5.0,6.0,85,0.00,,,0.00,0,Wunderground v.1.15,2013-01-02 07:30:00,
2013-01-02 01:35:00,20.1,16.3,30.03,SSW,213,4.0,6.0,85,0.00,,,0.00,0,Wunderground v.1.15,2013-01-02 07:35:00,
2013-01-02 01:40:00,20.1,16.3,30.03,SW,216,4.0,4.0,85,0.00,,,0.00,0,Wunderground v.1.15,2013-01-02 07:40:00,
2013-01-02 01:45:00,20.1,16.3,30.03,SSW,192,4.0,4.0,85,0.00,,,0.00,0,Wunderground v.1.15,2013-01-02 07:45:00,
2013-01-02 01:50:00,20.1,16.3,30.03,SW,217,2.0,2.0,85,0.00,,,0.00,0,Wunderground v.1.15,2013-01-02 07:50:00,
2013-01-02 01:55:00,20.1,16.3,30.03,SW,215,3.0,4.0,85,0.00,,,0.00,0,Wunderground v.1.15,2013-01-02 07:55:00,
2013-01-02 02:00:00,20.1,16.3,30.03,SW,222,5.0,5.0,85,0.00,,,0.00,0,Wunderground v.1.15,2013-01-02 08:00:00,
2013-01-02 02:05:00,20.0,16.2,30.03,SW,223,4.0,5.0,85,0.00,,,0.00,0,Wunderground v.1.15,2013-01-02 08:05:00,
2013-01-02 02:15:00,20.0,16.2,30.02,South,190,4.0,6.0,85,0.00,,,0.00,0,Wunderground v.1.15,2013-01-02 08:15:00,
2013-01-02 02:25:00,20.0,16.2,30.02,SW,221,5.0,6.0,85,0.00,,,0.00,0,Wunderground v.1.15,2013-01-02 08:25:00,
2013-01-02 02:30:00,20.0,16.2,30.02,South,189,5.0,5.0,85,0.00,,,0.00,0,Wunderground v.1.15,2013-01-02 08:30:00,
2013-01-02 02:40:00,20.0,16.2,30.02,SSW,197,5.0,5.0,85,0.00,,,0.00,0,Wunderground v.1.15,2013-01-02 08:40:00,
2013-01-02 02:45:00,20.0,16.2,30.02,South,178,5.0,5.0,85,0.00,,,0.00,0,Wunderground v.1.15,2013-01-02 08:45:00,
2013-01-02 02:50:00,20.0,16.2,30.02,SW,222,5.0,5.0,85,0.00,,,0.00,0,Wunderground v.1.15,2013-01-02 08:50:00,
2013-01-02 02:55:00,20.0,16.2,30.02,SSW,194,4.0,7.0,85,0.00,,,0.00,0,Wunderground v.1.15,2013-01-02 08:55:00,
2013-01-02 03:00:00,20.1,16.3,30.02,SW,219,5.0,5.0,85,0.00,,,0.00,0,Wunderground v.1.15,2013-01-02 09:00:00,
2013-01-02 03:05:00,20.1,16.3,30.02,South,189,4.0,8.0,85,0.00,,,0.00,0,Wunderground v.1.15,2013-01-02 09:05:00,
2013-01-02 03:15:00,20.1,16.3,30.02,South,184,5.0,5.0,85,0.00,,,0.00,0,Wunderground v.1.15,2013-01-02 09:15:00,
2013-01-02 03:20:00,20.0,16.2,30.02,South,180,5.0,6.0,85,0.00,,,0.00,0,Wunderground v.1.15,2013-01-02 09:20:00,
2013-01-02 03:25:00,20.0,16.2,30.02,South,180,4.0,6.0,85,0.00,,,0.00,0,Wunderground v.1.15,2013-01-02 09:25:00,
2013-01-02 03:30:00,20.0,16.2,30.02,SW,219,4.0,6.0,85,0.00,,,0.00,0,Wunderground v.1.15,2013-01-02 09:30:00,
2013-01-02 03:35:00,20.0,16.2,30.02,SSW,211,4.0,6.0,85,0.00,,,0.00,0,Wunderground v.1.15,2013-01-02 09:35:00,
2013-01-02 03:40:00,20.0,16.2,30.02,SSW,205,4.0,4.0,85,0.00,,,0.00,0,Wunderground v.1.15,2013-01-02 09:40:00,
2013-01-02 03:45:00,20.0,16.2,30.01,SSW,213,5.0,5.0,85,0.00,,,0.00,0,Wunderground v.1.15,2013-01-02 09:45:00,
2013-01-02 03:50:00,20.0,16.2,30.01,SSW,202,3.0,3.0,85,0.00,,,0.00,0,Wunderground v.1.15,2013-01-02 09:50:00,
2013-01-02 03:55:00,19.9,16.1,30.01,SSE,153,2.0,3.0,85,0.00,,,0.00,0,Wunderground v.1.15,2013-01-02 09:55:00,
2013-01-02 04:00:00,19.9,16.1,30.00,SSE,159,2.0,2.0,85,0.00,,,0.00,0,Wunderground v.1.15,2013-01-02 10:00:00,
2013-01-02 04:05:00,19.8,16.0,30.00,South,176,3.0,4.0,85,0.00,,,0.00,0,Wunderground v.1.15,2013-01-02 10:05:00,
2013-01-02 04:15:00,19.7,15.9,30.00,SSW,196,3.0,3.0,85,0.00,,,0.00,0,Wunderground v.1.15,2013-01-02 10:15:00,
2013-01-02 04:20:00,19.7,15.9,30.00,SSE,149,2.0,3.0,85,0.00,,,0.00,0,Wunderground v.1.15,2013-01-02 10:20:00,
2013-01-02 04:25:00,19.7,15.9,30.00,South,183,2.0,3.0,85,0.00,,,0.00,0,Wunderground v.1.15,2013-01-02 10:25:00,
2013-01-02 04:30:00,19.7,15.9,29.99,SSE,155,3.0,3.0,85,0.00,,,0.00,0,Wunderground v.1.15,2013-01-02 10:30:00,
2013-01-02 04:35:00,19.5,15.7,29.99,South,169,3.0,3.0,85,0.00,,,0.00,0,Wunderground v.1.15,2013-01-02 10:35:00,
2013-01-02 04:40:00,19.5,15.7,29.99,SE,142,3.0,3.0,85,0.00,,,0.00,0,Wunderground v.1.15,2013-01-02 10:40:00,
2013-01-02 04:45:00,19.4,15.6,29.99,SSE,160,3.0,4.0,85,0.00,,,0.00,0,Wunderground v.1.15,2013-01-02 10:45:00,
2013-01-02 04:50:00,19.4,15.6,29.99,SE,144,3.0,3.0,85,0.00,,,0.00,0,Wunderground v.1.15,2013-01-02 10:50:00,
2013-01-02 04:55:00,19.4,15.6,29.99,South,171,3.0,3.0,85,0.00,,,0.00,0,Wunderground v.1.15,2013-01-02 10:55:00,
2013-01-02 05:00:00,19.3,15.8,29.99,South,188,3.0,3.0,86,0.00,,,0.00,0,Wunderground v.1.15,2013-01-02 11:00:00,
2013-01-02 05:05:00,19.3,15.8,29.99,South,184,3.0,4.0,86,0.00,,,0.00,0,Wunderground v.1.15,2013-01-02 11:05:00,
2013-01-02 05:15:00,19.3,15.8,29.99,South,174,3.0,4.0,86,0.00,,,0.00,0,Wunderground v.1.15,2013-01-02 11:15:00,
2013-01-02 05:25:00,19.2,15.7,29.99,South,186,4.0,5.0,86,0.00,,,0.00,0,Wunderground v.1.15,2013-01-02 11:25:00,
2013-01-02 05:30:00,19.1,15.6,29.98,SSW,195,4.0,7.0,86,0.00,,,0.00,0,Wunderground v.1.15,2013-01-02 11:30:00,
2013-01-02 05:35:00,19.0,15.5,29.98,South,169,4.0,7.0,86,0.00,,,0.00,0,Wunderground v.1.15,2013-01-02 11:35:00,
2013-01-02 05:40:00,19.0,15.5,29.98,South,175,4.0,4.0,86,0.00,,,0.00,0,Wunderground v.1.15,2013-01-02 11:40:00,
2013-01-02 05:45:00,19.0,15.5,29.98,South,183,3.0,4.0,86,0.00,,,0.00,0,Wunderground v.1.15,2013-01-02 11:45:00,
2013-01-02 05:55:00,18.6,15.1,29.98,SSE,167,3.0,6.0,86,0.00,,,0.00,0,Wunderground v.1.15,2013-01-02 11:55:00,
2013-01-02 06:00:00,18.4,14.9,29.98,South,184,4.0,5.0,86,0.00,,,0.00,0,Wunderground v.1.15,2013-01-02 12:00:00,
2013-01-02 06:05:00,18.2,14.7,29.98,South,184,4.0,5.0,86,0.00,,,0.00,0,Wunderground v.1.15,2013-01-02 12:05:00,
2013-01-02 06:15:00,18.0,14.5,29.98,South,172,4.0,4.0,86,0.00,,,0.00,0,Wunderground v.1.15,2013-01-02 12:15:00,
2013-01-02 06:20:00,18.0,14.5,29.98,South,176,4.0,4.0,86,0.00,,,0.00,0,Wunderground v.1.15,2013-01-02 12:20:00,
2013-01-02 06:25:00,18.0,14.8,29.98,SSE,159,4.0,4.0,87,0.00,,,0.00,0,Wunderground v.1.15,2013-01-02 12:25:00,
2013-01-02 06:35:00,17.9,14.7,29.98,SSW,198,3.0,4.0,87,0.00,,,0.00,0,Wunderground v.1.15,2013-01-02 12:35:00,
2013-01-02 06:40:00,17.8,14.3,29.98,SSW,196,4.0,4.0,86,0.00,,,0.00,0,Wunderground v.1.15,2013-01-02 12:40:00,
2013-01-02 06:45:00,17.7,14.5,29.98,SSW,198,5.0,5.0,87,0.00,,,0.00,0,Wunderground v.1.15,2013-01-02 12:45:00,
2013-01-02 06:50:00,17.6,14.4,29.98,SSW,194,5.0,5.0,87,0.00,,,0.00,0,Wunderground v.1.15,2013-01-02 12:50:00,
2013-01-02 06:55:00,17.5,14.3,29.98,SE,144,5.0,5.0,87,0.00,,,0.00,0,Wunderground v.1.15,2013-01-02 12:55:00,
2013-01-02 07:00:00,17.3,14.1,29.98,South,186,5.0,8.0,87,0.00,,,0.00,0,Wunderground v.1.15,2013-01-02 13:00:00,
2013-01-02 07:05:00,17.2,14.0,29.98,SSW,199,4.0,8.0,87,0.00,,,0.00,0,Wunderground v.1.15,2013-01-02 13:05:00,
2013-01-02 07:15:00,16.8,13.6,29.98,SSW,203,5.0,7.0,87,0.00,,,0.00,0,Wunderground v.1.15,2013-01-02 13:15:00,
2013-01-02 07:20:00,16.6,13.4,29.98,SSW,199,5.0,8.0,87,0.00,,,0.00,0,Wunderground v.1.15,2013-01-02 13:20:00,
2013-01-02 07:30:00,16.5,13.6,29.98,South,184,4.0,4.0,88,0.00,,,0.00,0,Wunderground v.1.15,2013-01-02 13:30:00,
2013-01-02 07:35:00,16.4,13.5,29.98,South,170,4.0,4.0,88,0.00,,,0.00,0,Wunderground v.1.15,2013-01-02 13:35:00,
2013-01-02 07:40:00,16.3,13.4,29.98,South,176,4.0,4.0,88,0.00,,,0.00,0,Wunderground v.1.15,2013-01-02 13:40:00,
2013-01-02 07:45:00,16.3,13.4,29.98,SSE,165,4.0,4.0,88,0.00,,,0.00,0,Wunderground v.1.15,2013-01-02 13:45:00,
2013-01-02 07:50:00,16.3,13.4,29.98,SSE,167,3.0,3.0,88,0.00,,,0.00,0,Wunderground v.1.15,2013-01-02 13:50:00,
2013-01-02 07:55:00,16.2,13.3,29.98,SSW,193,4.0,5.0,88,0.00,,,0.00,0,Wunderground v.1.15,2013-01-02 13:55:00,
2013-01-02 08:05:00,16.2,13.3,29.98,South,173,4.0,5.0,88,0.00,,,0.00,0,Wunderground v.1.15,2013-01-02 14:05:00,
2013-01-02 08:15:00,16.0,13.1,29.98,South,172,4.0,5.0,88,0.00,,,0.00,7,Wunderground v.1.15,2013-01-02 14:15:00,
2013-01-02 08:20:00,16.0,13.1,29.98,South,182,4.0,4.0,88,0.00,,,0.00,11,Wunderground v.1.15,2013-01-02 14:20:00,
2013-01-02 08:25:00,16.0,13.1,29.98,SSE,164,4.0,4.0,88,0.00,,,0.00,11,Wunderground v.1.15,2013-01-02 14:25:00,
2013-01-02 08:35:00,15.9,13.0,29.98,South,191,4.0,5.0,88,0.00,,,0.00,16,Wunderground v.1.15,2013-01-02 14:35:00,
2013-01-02 08:40:00,15.8,12.6,29.98,South,179,5.0,5.0,87,0.00,,,0.00,18,Wunderground v.1.15,2013-01-02 14:40:00,
2013-01-02 08:45:00,15.7,12.5,29.99,SSW,193,4.0,5.0,87,0.00,,,0.00,19,Wunderground v.1.15,2013-01-02 14:45:00,
2013-01-02 08:50:00,15.8,12.6,29.99,SSW,192,4.0,7.0,87,0.00,,,0.00,26,Wunderground v.1.15,2013-01-02 14:50:00,
2013-01-02 08:55:00,15.8,12.6,29.99,South,170,3.0,7.0,87,0.00,,,0.00,30,Wunderground v.1.15,2013-01-02 14:55:00,
2013-01-02 09:00:00,15.9,13.0,30.00,South,180,3.0,4.0,88,0.00,,,0.00,33,Wunderground v.1.15,2013-01-02 15:00:00,
2013-01-02 09:05:00,15.9,13.0,30.00,SE,146,3.0,4.0,88,0.00,,,0.00,30,Wunderground v.1.15,2013-01-02 15:05:00,
2013-01-02 09:15:00,15.8,12.9,29.99,SSE,167,3.0,4.0,88,0.00,,,0.00,58,Wunderground v.1.15,2013-01-02 15:15:00,
2013-01-02 09:20:00,15.9,13.0,29.99,SSE,168,3.0,3.0,88,0.00,,,0.00,91,Wunderground v.1.15,2013-01-02 15:20:00,
2013-01-02 09:25:00,16.0,13.1,29.99,South,169,3.0,3.0,88,0.00,,,0.00,67,Wunderground v.1.15,2013-01-02 15:25:00,
2013-01-02 09:30:00,16.0,12.8,29.99,South,175,3.0,3.0,87,0.00,,,0.00,58,Wunderground v.1.15,2013-01-02 15:30:00,
2013-01-02 09:40:00,16.0,12.8,29.99,South,180,3.0,4.0,87,0.00,,,0.00,49,Wunderground v.1.15,2013-01-02 15:40:00,
2013-01-02 09:50:00,16.1,13.2,30.00,South,179,4.0,4.0,88,0.00,,,0.00,69,Wunderground v.1.15,2013-01-02 15:50:00,
2013-01-02 09:55:00,16.0,12.8,30.00,SSE,167,4.0,4.0,87,0.00,,,0.00,69,Wunderground v.1.15,2013-01-02 15:55:00,
2013-01-02 10:00:00,16.1,13.2,30.00,South,185,4.0,4.0,88,0.00,,,0.00,67,Wunderground v.1.15,2013-01-02 16:00:00,
2013-01-02 10:05:00,16.2,13.3,30.00,South,171,3.0,5.0,88,0.00,,,0.00,83,Wunderground v.1.15,2013-01-02 16:05:00,
2013-01-02 10:15:00,16.3,13.4,30.00,South,191,3.0,3.0,88,0.00,,,0.00,72,Wunderground v.1.15,2013-01-02 16:15:00,
2013-01-02 10:20:00,16.3,13.4,30.00,South,179,3.0,4.0,88,0.00,,,0.00,93,Wunderground v.1.15,2013-01-02 16:20:00,
2013-01-02 10:25:00,16.3,13.4,30.00,SSE,160,4.0,4.0,88,0.00,,,0.00,97,Wunderground v.1.15,2013-01-02 16:25:00,
2013-01-02 10:35:00,16.4,13.5,29.99,SSW,209,4.0,7.0,88,0.00,,,0.00,128,Wunderground v.1.15,2013-01-02 16:35:00,
2013-01-02 10:45:00,16.6,13.7,29.99,SSE,164,3.0,4.0,88,0.00,,,0.00,113,Wunderground v.1.15,2013-01-02 16:45:00,
2013-01-02 10:50:00,16.5,13.6,29.99,SSW,193,4.0,7.0,88,0.00,,,0.00,104,Wunderground v.1.15,2013-01-02 16:50:00,
2013-01-02 10:55:00,16.5,13.6,29.99,South,178,4.0,7.0,88,0.00,,,0.00,98,Wunderground v.1.15,2013-01-02 16:55:00,
2013-01-02 11:00:00,16.5,13.6,29.99,ESE,122,4.0,4.0,88,0.00,,,0.00,95,Wunderground v.1.15,2013-01-02 17:00:00,
2013-01-02 11:05:00,16.6,13.7,29.99,SSE,152,4.0,4.0,88,0.00,,,0.00,107,Wunderground v.1.15,2013-01-02 17:05:00,
2013-01-02 11:15:00,16.5,13.6,29.98,South,178,4.0,5.0,88,0.00,,,0.00,107,Wunderground v.1.15,2013-01-02 17:15:00,
2013-01-02 11:20:00,16.5,13.6,29.98,South,187,4.0,5.0,88,0.00,,,0.00,105,Wunderground v.1.15,2013-01-02 17:20:00,
2013-01-02 11:25:00,16.6,13.7,29.98,South,179,3.0,5.0,88,0.00,,,0.00,116,Wunderground v.1.15,2013-01-02 17:25:00,
2013-01-02 11:30:00,16.8,13.9,29.98,South,183,2.0,5.0,88,0.00,,,0.00,114,Wunderground v.1.15,2013-01-02 17:30:00,
2013-01-02 11:35:00,16.7,13.8,29.98,SSE,161,3.0,5.0,88,0.00,,,0.00,123,Wunderground v.1.15,2013-01-02 17:35:00,
2013-01-02 11:40:00,16.7,13.8,29.98,SE,134,4.0,4.0,88,0.00,,,0.00,146,Wunderground v.1.15,2013-01-02 17:40:00,
2013-01-02 11:50:00,17.0,14.1,29.97,South,174,3.0,3.0,88,0.00,,,0.00,171,Wunderground v.1.15,2013-01-02 17:50:00,
2013-01-02 11:55:00,17.0,14.1,29.97,SSW,203,3.0,4.0,88,0.00,,,0.00,158,Wunderground v.1.15,2013-01-02 17:55:00,
2013-01-02 12:00:00,17.0,14.1,29.97,South,173,3.0,4.0,88,0.00,,,0.00,142,Wunderground v.1.15,2013-01-02 18:00:00,
2013-01-02 12:05:00,17.0,14.1,29.97,South,169,3.0,4.0,88,0.00,,,0.00,142,Wunderground v.1.15,2013-01-02 18:05:00,
2013-01-02 12:15:00,17.0,14.1,29.97,SE,140,3.0,4.0,88,0.00,,,0.00,171,Wunderground v.1.15,2013-01-02 18:15:00,
2013-01-02 12:25:00,17.2,14.3,29.97,South,183,4.0,4.0,88,0.00,,,0.00,156,Wunderground v.1.15,2013-01-02 18:25:00,
2013-01-02 12:30:00,17.3,14.4,29.97,SE,145,3.0,4.0,88,0.00,,,0.00,148,Wunderground v.1.15,2013-01-02 18:30:00,
2013-01-02 12:35:00,17.4,14.5,29.97,SSE,161,3.0,4.0,88,0.00,,,0.00,144,Wunderground v.1.15,2013-01-02 18:35:00,
2013-01-02 12:40:00,17.4,14.5,29.97,SSE,148,3.0,3.0,88,0.00,,,0.00,118,Wunderground v.1.15,2013-01-02 18:40:00,
2013-01-02 12:45:00,17.4,14.5,29.97,SSE,157,3.0,3.0,88,0.00,,,0.00,102,Wunderground v.1.15,2013-01-02 18:45:00,
2013-01-02 12:55:00,17.6,14.7,29.97,South,188,3.0,3.0,88,0.00,,,0.00,125,Wunderground v.1.15,2013-01-02 18:55:00,
2013-01-02 13:00:00,17.7,14.8,29.96,SE,146,3.0,3.0,88,0.00,,,0.00,120,Wunderground v.1.15,2013-01-02 19:00:00,
2013-01-02 13:05:00,17.8,14.8,29.96,South,169,2.0,3.0,88,0.00,,,0.00,132,Wunderground v.1.15,2013-01-02 19:05:00,
2013-01-02 13:15:00,18.0,15.0,29.96,SSE,148,2.0,3.0,88,0.00,,,0.00,111,Wunderground v.1.15,2013-01-02 19:15:00,
2013-01-02 13:25:00,18.1,15.1,29.96,South,182,2.0,4.0,88,0.00,,,0.00,100,Wunderground v.1.15,2013-01-02 19:25:00,
2013-01-02 13:35:00,18.2,15.2,29.96,SSE,165,2.0,3.0,88,0.00,,,0.00,105,Wunderground v.1.15,2013-01-02 19:35:00,
2013-01-02 13:45:00,18.2,15.2,29.96,SSE,157,2.0,3.0,88,0.00,,,0.00,98,Wunderground v.1.15,2013-01-02 19:45:00,
2013-01-02 13:50:00,18.3,15.3,29.96,SSE,157,2.0,2.0,88,0.00,,,0.00,116,Wunderground v.1.15,2013-01-02 19:50:00,
2013-01-02 13:55:00,18.4,15.4,29.96,SE,132,2.0,2.0,88,0.00,,,0.00,134,Wunderground v.1.15,2013-01-02 19:55:00,
2013-01-02 14:00:00,18.4,15.4,29.96,SSE,161,2.0,3.0,88,0.00,,,0.00,132,Wunderground v.1.15,2013-01-02 20:00:00,
2013-01-02 14:05:00,18.4,15.4,29.96,SSE,153,2.0,3.0,88,0.00,,,0.00,105,Wunderground v.1.15,2013-01-02 20:05:00,
2013-01-02 14:15:00,18.5,15.5,29.97,South,184,2.0,2.0,88,0.00,,,0.00,93,Wunderground v.1.15,2013-01-02 20:15:00,
2013-01-02 14:20:00,18.5,15.5,29.97,SSE,151,2.0,3.0,88,0.00,,,0.00,84,Wunderground v.1.15,2013-01-02 20:20:00,
2013-01-02 14:30:00,18.5,15.5,29.97,South,171,2.0,2.0,88,0.00,,,0.00,83,Wunderground v.1.15,2013-01-02 20:30:00,
2013-01-02 14:35:00,18.6,15.6,29.97,South,171,2.0,2.0,88,0.00,,,0.00,86,Wunderground v.1.15,2013-01-02 20:35:00,
2013-01-02 14:40:00,18.7,15.7,29.97,SE,144,1.0,1.0,88,0.00,,,0.00,86,Wunderground v.1.15,2013-01-02 20:40:00,
2013-01-02 14:45:00,18.8,15.8,29.97,SE,144,1.0,3.0,88,0.00,,,0.00,77,Wunderground v.1.15,2013-01-02 20:45:00,
2013-01-02 14:50:00,18.8,15.8,29.97,SSE,148,2.0,2.0,88,0.00,,,0.00,69,Wunderground v.1.15,2013-01-02 20:50:00,
2013-01-02 15:00:00,18.9,15.9,29.98,SSE,155,2.0,3.0,88,0.00,,,0.00,72,Wunderground v.1.15,2013-01-02 21:00:00,
2013-01-02 15:05:00,19.1,16.1,29.98,SSE,164,2.0,3.0,88,0.00,,,0.00,62,Wunderground v.1.15,2013-01-02 21:05:00,
2013-01-02 15:15:00,19.4,16.4,29.98,South,179,2.0,3.0,88,0.00,,,0.00,49,Wunderground v.1.15,2013-01-02 21:15:00,
2013-01-02 15:20:00,19.4,16.4,29.98,South,178,2.0,2.0,88,0.00,,,0.00,37,Wunderground v.1.15,2013-01-02 21:20:00,
2013-01-02 15:25:00,19.5,16.5,29.98,South,178,2.0,3.0,88,0.00,,,0.00,26,Wunderground v.1.15,2013-01-02 21:25:00,
2013-01-02 15:30:00,19.6,16.6,29.99,SSW,196,2.0,3.0,88,0.00,,,0.00,25,Wunderground v.1.15,2013-01-02 21:30:00,
2013-01-02 15:35:00,19.6,16.6,29.99,SSW,196,2.0,4.0,88,0.00,,,0.00,28,Wunderground v.1.15,2013-01-02 21:35:00,
2013-01-02 15:40:00,19.7,16.7,29.99,SSE,165,3.0,3.0,88,0.00,,,0.00,32,Wunderground v.1.15,2013-01-02 21:40:00,
2013-01-02 15:45:00,19.7,16.7,29.99,South,171,3.0,3.0,88,0.00,,,0.00,25,Wunderground v.1.15,2013-01-02 21:45:00,
2013-01-02 15:50:00,19.7,16.7,29.99,South,171,2.0,2.0,88,0.00,,,0.00,18,Wunderground v.1.15,2013-01-02 21:50:00,
2013-01-02 15:55:00,19.7,16.7,29.99,South,171,1.0,2.0,88,0.00,,,0.00,18,Wunderground v.1.15,2013-01-02 21:55:00,
2013-01-02 16:05:00,19.6,16.6,30.00,SSW,192,2.0,2.0,88,0.00,,,0.00,11,Wunderground v.1.15,2013-01-02 22:05:00,
2013-01-02 16:15:00,19.6,16.6,30.00,SSW,192,1.0,2.0,88,0.00,,,0.00,12,Wunderground v.1.15,2013-01-02 22:15:00,
2013-01-02 16:20:00,19.7,16.7,30.00,SSW,192,1.0,1.0,88,0.00,,,0.00,7,Wunderground v.1.15,2013-01-02 22:20:00,
2013-01-02 16:30:00,19.7,16.5,30.00,SSW,192,2.0,2.0,87,0.00,,,0.00,0,Wunderground v.1.15,2013-01-02 22:30:00,
2013-01-02 16:40:00,19.9,16.7,30.00,SSW,192,2.0,2.0,87,0.00,,,0.00,0,Wunderground v.1.15,2013-01-02 22:40:00,
2013-01-02 16:50:00,20.0,16.8,30.00,SSW,192,1.0,2.0,87,0.00,,,0.00,0,Wunderground v.1.15,2013-01-02 22:50:00,
2013-01-02 16:55:00,20.0,16.8,30.00,SSW,192,2.0,2.0,87,0.00,,,0.00,0,Wunderground v.1.15,2013-01-02 22:55:00,
2013-01-02 17:00:00,20.0,16.8,30.00,SSW,192,2.0,2.0,87,0.00,,,0.00,0,Wunderground v.1.15,2013-01-02 23:00:00,
2013-01-02 17:05:00,19.9,16.7,30.00,SSW,192,2.0,2.0,87,0.00,,,0.00,0,Wunderground v.1.15,2013-01-02 23:05:00,
2013-01-02 17:15:00,19.8,16.3,30.00,SSW,192,2.0,2.0,86,0.00,,,0.00,0,Wunderground v.1.15,2013-01-02 23:15:00,
2013-01-02 17:20:00,19.7,16.2,30.00,SSW,192,2.0,2.0,86,0.00,,,0.00,0,Wunderground v.1.15,2013-01-02 23:20:00,
2013-01-02 17:25:00,19.7,16.5,30.00,SSW,192,2.0,2.0,87,0.00,,,0.00,0,Wunderground v.1.15,2013-01-02 23:25:00,
2013-01-02 17:30:00,19.7,16.5,30.01,SSW,192,2.0,3.0,87,0.00,,,0.00,0,Wunderground v.1.15,2013-01-02 23:30:00,
2013-01-02 17:35:00,19.7,16.5,30.01,SSW,198,3.0,3.0,87,0.00,,,0.00,0,Wunderground v.1.15,2013-01-02 23:35:00,
2013-01-02 17:45:00,19.7,16.5,30.01,SSW,196,3.0,3.0,87,0.00,,,0.00,0,Wunderground v.1.15,2013-01-02 23:45:00,
2013-01-02 17:50:00,19.7,16.5,30.01,SSW,203,2.0,2.0,87,0.00,,,0.00,0,Wunderground v.1.15,2013-01-02 23:50:00,
2013-01-02 17:55:00,19.7,16.5,30.01,SSW,210,3.0,4.0,87,0.00,,,0.00,0,Wunderground v.1.15,2013-01-02 23:55:00,
2013-01-02 18:00:00,19.7,16.5,30.02,SSW,208,3.0,3.0,87,0.00,,,0.00,0,Wunderground v.1.15,2013-01-03 00:00:00,
2013-01-02 18:05:00,19.7,16.5,30.02,SSW,207,2.0,3.0,87,0.00,,,0.00,0,Wunderground v.1.15,2013-01-03 00:05:00,
2013-01-02 18:15:00,19.7,16.5,30.02,SSW,208,2.0,3.0,87,0.00,,,0.00,0,Wunderground v.1.15,2013-01-03 00:15:00,
2013-01-02 18:20:00,19.7,16.5,30.02,SSW,208,2.0,2.0,87,0.00,,,0.00,0,Wunderground v.1.15,2013-01-03 00:20:00,
2013-01-02 18:25:00,19.7,16.5,30.02,SSW,208,2.0,2.0,87,0.00,,,0.00,0,Wunderground v.1.15,2013-01-03 00:25:00,
2013-01-02 18:30:00,19.7,16.5,30.02,SSW,208,2.0,3.0,87,0.00,,,0.00,0,Wunderground v.1.15,2013-01-03 00:30:00,
2013-01-02 18:40:00,19.7,16.5,30.02,SSW,207,2.0,2.0,87,0.00,,,0.00,0,Wunderground v.1.15,2013-01-03 00:40:00,
2013-01-02 18:45:00,19.7,16.5,30.02,SSW,208,2.0,2.0,87,0.00,,,0.00,0,Wunderground v.1.15,2013-01-03 00:45:00,
2013-01-02 18:50:00,19.7,16.5,30.02,SSW,207,2.0,3.0,87,0.00,,,0.00,0,Wunderground v.1.15,2013-01-03 00:50:00,
2013-01-02 18:55:00,19.7,16.5,30.02,SSW,207,3.0,3.0,87,0.00,,,0.00,0,Wunderground v.1.15,2013-01-03 00:55:00,
2013-01-02 19:00:00,19.7,16.5,30.03,SSW,208,3.0,3.0,87,0.00,,,0.00,0,Wunderground v.1.15,2013-01-03 01:00:00,
2013-01-02 19:05:00,19.7,16.5,30.03,SSW,208,2.0,4.0,87,0.00,,,0.00,0,Wunderground v.1.15,2013-01-03 01:05:00,
2013-01-02 19:15:00,19.7,16.5,30.03,SSW,207,2.0,3.0,87,0.00,,,0.00,0,Wunderground v.1.15,2013-01-03 01:15:00,
2013-01-02 19:25:00,19.7,16.5,30.03,SSW,208,1.0,2.0,87,0.00,,,0.00,0,Wunderground v.1.15,2013-01-03 01:25:00,
2013-01-02 19:30:00,19.7,16.5,30.03,SSW,208,2.0,2.0,87,0.00,,,0.00,0,Wunderground v.1.15,2013-01-03 01:30:00,
2013-01-02 19:35:00,19.7,16.5,30.03,SSW,207,2.0,2.0,87,0.00,,,0.00,0,Wunderground v.1.15,2013-01-03 01:35:00,
2013-01-02 19:40:00,19.7,16.5,30.03,SSW,208,2.0,3.0,87,0.00,,,0.00,0,Wunderground v.1.15,2013-01-03 01:40:00,
2013-01-02 19:45:00,19.7,16.5,30.04,SSW,208,2.0,4.0,87,0.00,,,0.00,0,Wunderground v.1.15,2013-01-03 01:45:00,
2013-01-02 19:50:00,19.7,16.5,30.04,SSW,207,3.0,3.0,87,0.00,,,0.00,0,Wunderground v.1.15,2013-01-03 01:50:00,
2013-01-02 19:55:00,19.7,16.7,30.04,SSW,208,3.0,3.0,88,0.00,,,0.00,0,Wunderground v.1.15,2013-01-03 01:55:00,
2013-01-02 20:05:00,19.7,16.7,30.03,SSW,208,2.0,3.0,88,0.00,,,0.00,0,Wunderground v.1.15,2013-01-03 02:05:00,
2013-01-02 20:15:00,19.7,16.7,30.04,SSW,208,2.0,2.0,88,0.00,,,0.00,0,Wunderground v.1.15,2013-01-03 02:15:00,
2013-01-02 20:20:00,19.7,16.7,30.04,SSW,207,2.0,2.0,88,0.00,,,0.00,0,Wunderground v.1.15,2013-01-03 02:20:00,
2013-01-02 20:30:00,19.7,16.7,30.04,SSW,207,3.0,3.0,88,0.00,,,0.00,0,Wunderground v.1.15,2013-01-03 02:30:00,
2013-01-02 20:40:00,19.7,16.7,30.04,SSW,207,2.0,2.0,88,0.00,,,0.00,0,Wunderground v.1.15,2013-01-03 02:40:00,
2013-01-02 20:45:00,19.7,16.7,30.04,SSW,208,2.0,3.0,88,0.00,,,0.00,0,Wunderground v.1.15,2013-01-03 02:45:00,
2013-01-02 20:50:00,19.8,16.8,30.04,SSW,208,2.0,2.0,88,0.00,,,0.00,0,Wunderground v.1.15,2013-01-03 02:50:00,
2013-01-02 21:00:00,19.9,16.9,30.05,SSW,208,1.0,1.0,88,0.00,,,0.00,0,Wunderground v.1.15,2013-01-03 03:00:00,
2013-01-02 21:05:00,20.0,17.0,30.05,SSW,208,1.0,1.0,88,0.00,,,0.00,0,Wunderground v.1.15,2013-01-03 03:05:00,
2013-01-02 21:15:00,20.1,17.1,30.05,SSW,208,1.0,1.0,88,0.00,,,0.00,0,Wunderground v.1.15,2013-01-03 03:15:00,
2013-01-02 21:20:00,20.3,17.3,30.05,SSW,207,1.0,2.0,88,0.00,,,0.00,0,Wunderground v.1.15,2013-01-03 03:20:00,
2013-01-02 21:25:00,20.4,17.4,30.05,SSW,208,2.0,2.0,88,0.00,,,0.00,0,Wunderground v.1.15,2013-01-03 03:25:00,
2013-01-02 21:30:00,20.5,17.5,30.06,SSW,208,2.0,2.0,88,0.00,,,0.00,0,Wunderground v.1.15,2013-01-03 03:30:00,
2013-01-02 21:35:00,20.6,17.6,30.06,SSW,207,2.0,2.0,88,0.00,,,0.00,0,Wunderground v.1.15,2013-01-03 03:35:00,
2013-01-02 21:50:00,20.8,17.8,30.06,SSW,208,1.0,2.0,88,0.00,,,0.00,0,Wunderground v.1.15,2013-01-03 03:50:00,
2013-01-02 21:55:00,20.8,17.8,30.06,SSW,208,1.0,2.0,88,0.00,,,0.00,0,Wunderground v.1.15,2013-01-03 03:55:00,
2013-01-02 22:00:00,20.9,17.9,30.06,SSW,207,1.0,2.0,88,0.00,,,0.00,0,Wunderground v.1.15,2013-01-03 04:00:00,
2013-01-02 22:05:00,20.9,17.9,30.06,SSW,208,1.0,2.0,88,0.00,,,0.00,0,Wunderground v.1.15,2013-01-03 04:05:00,
2013-01-02 22:15:00,21.2,18.2,30.07,SSW,207,1.0,1.0,88,0.00,,,0.00,0,Wunderground v.1.15,2013-01-03 04:15:00,
2013-01-02 22:20:00,21.5,18.5,30.07,SSW,208,1.0,1.0,88,0.00,,,0.00,0,Wunderground v.1.15,2013-01-03 04:20:00,
2013-01-02 22:25:00,21.6,18.3,30.07,WNW,296,1.0,1.0,87,0.00,,,0.00,0,Wunderground v.1.15,2013-01-03 04:25:00,
2013-01-02 22:30:00,21.7,18.4,30.08,WSW,241,1.0,4.0,87,0.00,,,0.00,0,Wunderground v.1.15,2013-01-03 04:30:00,
2013-01-02 22:35:00,21.7,18.2,30.08,West,269,2.0,4.0,86,0.00,,,0.00,0,Wunderground v.1.15,2013-01-03 04:35:00,
2013-01-02 22:45:00,21.7,17.6,30.08,West,280,2.0,3.0,84,0.00,,,0.00,0,Wunderground v.1.15,2013-01-03 04:45:00,
2013-01-02 22:50:00,21.6,17.2,30.08,WSW,246,1.0,2.0,83,0.00,,,0.00,0,Wunderground v.1.15,2013-01-03 04:50:00,
2013-01-02 22:55:00,21.5,17.1,30.08,WSW,257,1.0,3.0,83,0.00,,,0.00,0,Wunderground v.1.15,2013-01-03 04:55:00,
2013-01-02 23:05:00,21.1,16.5,30.08,West,259,2.0,2.0,82,0.00,,,0.00,0,Wunderground v.1.15,2013-01-03 05:05:00,
2013-01-02 23:15:00,20.9,16.5,30.09,WSW,242,2.0,3.0,83,0.00,,,0.00,0,Wunderground v.1.15,2013-01-03 05:15:00,
2013-01-02 23:20:00,20.7,16.4,30.09,West,263,2.0,2.0,83,0.00,,,0.00,0,Wunderground v.1.15,2013-01-03 05:20:00,
2013-01-02 23:25:00,20.6,16.3,30.09,WNW,298,2.0,2.0,83,0.00,,,0.00,0,Wunderground v.1.15,2013-01-03 05:25:00,
2013-01-02 23:30:00,20.5,16.2,30.09,WSW,249,1.0,1.0,83,0.00,,,0.00,0,Wunderground v.1.15,2013-01-03 05:30:00,
2013-01-02 23:35:00,20.4,16.1,30.09,NW,319,1.0,2.0,83,0.00,,,0.00,0,Wunderground v.1.15,2013-01-03 05:35:00,
2013-01-02 23:40:00,20.3,16.0,30.09,West,277,2.0,2.0,83,0.00,,,0.00,0,Wunderground v.1.15,2013-01-03 05:40:00,
2013-01-02 23:50:00,20.1,15.5,30.09,WNW,290,3.0,3.0,82,0.00,,,0.00,0,Wunderground v.1.15,2013-01-03 05:50:00,
2013-01-02 23:55:00,20.0,15.4,30.09,West,272,2.0,4.0,82,0.00,,,0.00,0,Wunderground v.1.15,2013-01-03 05:55:00,